createdAt,value
2017-07-27T00:00:28.969Z,0
2017-07-27T00:01:43.116Z,0
2017-07-27T00:02:44.973Z,0
2017-07-27T00:03:46.852Z,0
2017-07-27T00:04:48.710Z,0
2017-07-27T00:05:50.525Z,0
2017-07-27T00:06:52.317Z,0
2017-07-27T00:07:54.180Z,0
2017-07-27T00:08:56.053Z,0
2017-07-27T00:09:57.909Z,0
2017-07-27T00:11:12.038Z,0
2017-07-27T00:12:13.891Z,0
2017-07-27T00:13:15.754Z,0
2017-07-27T00:14:17.629Z,0
2017-07-27T00:15:19.422Z,0
2017-07-27T00:16:21.216Z,0
2017-07-27T00:17:23.071Z,0
2017-07-27T00:18:24.926Z,0
2017-07-27T00:19:26.806Z,0
2017-07-27T00:20:40.928Z,0
2017-07-27T00:21:42.784Z,0
2017-07-27T00:22:44.644Z,0
2017-07-27T00:23:46.525Z,0
2017-07-27T00:24:48.337Z,0
2017-07-27T00:25:50.135Z,0
2017-07-27T00:26:51.984Z,0
2017-07-27T00:27:53.842Z,0
2017-07-27T00:28:55.701Z,0
2017-07-27T00:30:09.895Z,0
2017-07-27T00:31:11.753Z,0
2017-07-27T00:32:13.636Z,0
2017-07-27T00:33:15.516Z,0
2017-07-27T00:34:17.307Z,0
2017-07-27T00:35:19.101Z,0
2017-07-27T00:36:20.963Z,0
2017-07-27T00:37:22.843Z,0
2017-07-27T00:38:24.696Z,0
2017-07-27T00:39:38.820Z,0
2017-07-27T00:40:40.677Z,0
2017-07-27T00:41:42.558Z,0
2017-07-27T00:42:44.445Z,0
2017-07-27T00:43:46.259Z,0
2017-07-27T00:44:48.070Z,0
2017-07-27T00:45:49.929Z,0
2017-07-27T00:46:51.781Z,0
2017-07-27T00:47:53.638Z,0
2017-07-27T00:49:07.760Z,0
2017-07-27T00:50:09.622Z,0
2017-07-27T00:51:11.473Z,0
2017-07-27T00:52:13.329Z,0
2017-07-27T00:53:15.146Z,0
2017-07-27T00:54:16.935Z,0
2017-07-27T00:55:18.795Z,0
2017-07-27T00:56:20.672Z,0
2017-07-27T00:57:22.529Z,0
2017-07-27T00:58:36.674Z,0
2017-07-27T00:59:38.541Z,0
2017-07-27T01:00:40.410Z,0
2017-07-27T01:01:42.306Z,0
2017-07-27T01:02:44.106Z,0
2017-07-27T01:03:45.912Z,0
2017-07-27T01:04:47.783Z,0
2017-07-27T01:05:49.676Z,0
2017-07-27T01:06:51.550Z,0
2017-07-27T01:08:05.716Z,0
2017-07-27T01:09:07.607Z,0
2017-07-27T01:10:09.475Z,0
2017-07-27T01:11:11.343Z,0
2017-07-27T01:12:13.144Z,0
2017-07-27T01:13:14.954Z,0
2017-07-27T01:14:16.846Z,0
2017-07-27T01:15:18.712Z,0
2017-07-27T01:16:20.577Z,0
2017-07-27T01:17:34.721Z,0
2017-07-27T01:18:36.611Z,0
2017-07-27T01:19:38.502Z,0
2017-07-27T01:20:40.363Z,0
2017-07-27T01:21:42.175Z,0
2017-07-27T01:22:43.995Z,0
2017-07-27T01:23:45.868Z,0
2017-07-27T01:24:47.756Z,0
2017-07-27T01:25:49.646Z,0
2017-07-27T01:27:03.807Z,0
2017-07-27T01:28:05.675Z,0
2017-07-27T01:29:07.547Z,0
2017-07-27T01:30:09.433Z,0
2017-07-27T01:31:11.240Z,0
2017-07-27T01:32:13.048Z,0
2017-07-27T01:33:14.936Z,0
2017-07-27T01:34:16.810Z,0
2017-07-27T01:35:18.677Z,0
2017-07-27T01:36:32.816Z,0
2017-07-27T01:37:34.685Z,0
2017-07-27T01:38:36.551Z,0
2017-07-27T01:39:38.421Z,0
2017-07-27T01:40:40.223Z,0
2017-07-27T01:41:42.029Z,0
2017-07-27T01:42:43.900Z,0
2017-07-27T01:43:45.790Z,0
2017-07-27T01:44:47.678Z,0
2017-07-27T01:46:01.823Z,0
2017-07-27T01:47:03.718Z,0
2017-07-27T01:48:05.583Z,0
2017-07-27T01:49:07.452Z,0
2017-07-27T01:50:09.265Z,0
2017-07-27T01:51:11.082Z,0
2017-07-27T01:52:12.956Z,0
2017-07-27T01:53:14.848Z,0
2017-07-27T01:54:16.714Z,0
2017-07-27T01:55:30.855Z,0
2017-07-27T01:56:32.744Z,0
2017-07-27T01:57:34.612Z,0
2017-07-27T01:58:36.488Z,0
2017-07-27T01:59:38.316Z,0
2017-07-27T02:00:40.141Z,0
2017-07-27T02:01:42.032Z,0
2017-07-27T02:02:43.898Z,0
2017-07-27T02:03:45.769Z,0
2017-07-27T02:04:59.956Z,0
2017-07-27T02:06:01.826Z,0
2017-07-27T02:07:03.720Z,0
2017-07-27T02:08:05.610Z,0
2017-07-27T02:09:07.414Z,0
2017-07-27T02:10:09.220Z,0
2017-07-27T02:11:11.107Z,0
2017-07-27T02:12:12.980Z,0
2017-07-27T02:13:14.871Z,0
2017-07-27T02:14:29.007Z,0
2017-07-27T02:15:30.875Z,0
2017-07-27T02:16:32.748Z,0
2017-07-27T02:17:34.642Z,0
2017-07-27T02:18:36.468Z,0
2017-07-27T02:19:38.273Z,0
2017-07-27T02:20:40.162Z,0
2017-07-27T02:21:42.030Z,0
2017-07-27T02:22:43.919Z,0
2017-07-27T02:23:58.066Z,0
2017-07-27T02:24:59.953Z,0
2017-07-27T02:26:01.828Z,0
2017-07-27T02:27:03.697Z,0
2017-07-27T02:28:05.526Z,0
2017-07-27T02:29:07.330Z,0
2017-07-27T02:30:09.219Z,0
2017-07-27T02:31:11.101Z,0
2017-07-27T02:32:12.969Z,0
2017-07-27T02:33:27.111Z,0
2017-07-27T02:34:28.980Z,0
2017-07-27T02:35:30.852Z,0
2017-07-27T02:36:32.744Z,0
2017-07-27T02:37:34.548Z,0
2017-07-27T02:38:36.352Z,0
2017-07-27T02:39:38.249Z,0
2017-07-27T02:40:40.140Z,0
2017-07-27T02:41:42.031Z,0
2017-07-27T02:42:56.197Z,0
2017-07-27T02:43:58.086Z,0
2017-07-27T02:44:59.958Z,0
2017-07-27T02:46:01.831Z,0
2017-07-27T02:47:03.656Z,0
2017-07-27T02:48:05.460Z,0
2017-07-27T02:49:07.348Z,0
2017-07-27T02:50:09.217Z,0
2017-07-27T02:51:11.087Z,0
2017-07-27T02:52:25.248Z,0
2017-07-27T02:53:27.137Z,0
2017-07-27T02:54:29.005Z,0
2017-07-27T02:55:30.882Z,0
2017-07-27T02:56:32.706Z,4
2017-07-27T02:57:34.508Z,0
2017-07-27T02:58:36.379Z,4
2017-07-27T02:59:38.248Z,8
2017-07-27T03:00:40.119Z,4
2017-07-27T03:01:54.286Z,8
2017-07-27T03:02:56.174Z,8
2017-07-27T03:03:58.044Z,4
2017-07-27T03:04:59.917Z,8
2017-07-27T03:06:01.749Z,12
2017-07-27T03:07:03.572Z,8
2017-07-27T03:08:05.438Z,12
2017-07-27T03:09:07.302Z,12
2017-07-27T03:10:09.172Z,12
2017-07-27T03:11:23.314Z,12
2017-07-27T03:12:25.200Z,16
2017-07-27T03:13:27.079Z,16
2017-07-27T03:14:28.971Z,20
2017-07-27T03:15:30.776Z,20
2017-07-27T03:16:32.578Z,24
2017-07-27T03:17:34.477Z,24
2017-07-27T03:18:36.369Z,24
2017-07-27T03:19:38.260Z,28
2017-07-27T03:20:52.403Z,32
2017-07-27T03:21:54.279Z,36
2017-07-27T03:22:56.171Z,36
2017-07-27T03:23:58.044Z,36
2017-07-27T03:24:59.867Z,44
2017-07-27T03:26:01.678Z,44
2017-07-27T03:27:03.569Z,52
2017-07-27T03:28:05.439Z,48
2017-07-27T03:29:07.333Z,56
2017-07-27T03:30:21.498Z,52
2017-07-27T03:31:23.393Z,60
2017-07-27T03:32:25.282Z,64
2017-07-27T03:33:27.156Z,64
2017-07-27T03:34:28.982Z,64
2017-07-27T03:35:30.792Z,76
2017-07-27T03:36:32.683Z,80
2017-07-27T03:37:34.551Z,92
2017-07-27T03:38:36.422Z,96
2017-07-27T03:39:50.585Z,104
2017-07-27T03:40:52.480Z,108
2017-07-27T03:41:54.355Z,108
2017-07-27T03:42:56.225Z,104
2017-07-27T03:43:58.035Z,104
2017-07-27T03:44:59.861Z,104
2017-07-27T03:46:01.736Z,112
2017-07-27T03:47:03.631Z,116
2017-07-27T03:48:05.517Z,120
2017-07-27T03:49:19.673Z,128
2017-07-27T03:50:21.567Z,136
2017-07-27T03:51:23.462Z,148
2017-07-27T03:52:25.357Z,156
2017-07-27T03:53:27.164Z,168
2017-07-27T03:54:28.970Z,180
2017-07-27T03:55:30.865Z,184
2017-07-27T03:56:32.757Z,188
2017-07-27T03:57:34.652Z,196
2017-07-27T03:58:48.821Z,204
2017-07-27T03:59:50.714Z,212
2017-07-27T04:00:52.609Z,224
2017-07-27T04:01:54.474Z,236
2017-07-27T04:02:56.289Z,252
2017-07-27T04:03:58.117Z,268
2017-07-27T04:05:00.007Z,280
2017-07-27T04:06:01.876Z,288
2017-07-27T04:07:03.706Z,304
2017-07-27T04:08:17.919Z,324
2017-07-27T04:09:19.787Z,348
2017-07-27T04:10:21.686Z,368
2017-07-27T04:11:23.572Z,380
2017-07-27T04:12:25.384Z,388
2017-07-27T04:13:27.213Z,388
2017-07-27T04:14:29.111Z,396
2017-07-27T04:15:31.003Z,408
2017-07-27T04:16:32.878Z,416
2017-07-27T04:17:47.043Z,424
2017-07-27T04:18:48.914Z,428
2017-07-27T04:19:50.815Z,428
2017-07-27T04:20:52.692Z,428
2017-07-27T04:21:54.518Z,436
2017-07-27T04:22:56.348Z,440
2017-07-27T04:23:58.236Z,448
2017-07-27T04:25:00.110Z,448
2017-07-27T04:26:01.984Z,456
2017-07-27T04:27:16.126Z,468
2017-07-27T04:28:18.001Z,480
2017-07-27T04:29:19.871Z,488
2017-07-27T04:30:21.743Z,508
2017-07-27T04:31:23.575Z,520
2017-07-27T04:32:25.408Z,540
2017-07-27T04:33:27.307Z,572
2017-07-27T04:34:29.199Z,608
2017-07-27T04:35:31.071Z,640
2017-07-27T04:36:45.240Z,680
2017-07-27T04:37:47.134Z,716
2017-07-27T04:38:49.006Z,748
2017-07-27T04:39:50.900Z,780
2017-07-27T04:40:52.710Z,828
2017-07-27T04:41:54.517Z,892
2017-07-27T04:42:56.413Z,968
2017-07-27T04:43:58.310Z,1060
2017-07-27T04:45:00.203Z,1168
2017-07-27T04:46:14.346Z,1296
2017-07-27T04:47:16.218Z,1372
2017-07-27T04:48:18.094Z,1432
2017-07-27T04:49:19.992Z,1504
2017-07-27T04:50:21.819Z,1548
2017-07-27T04:51:23.632Z,1576
2017-07-27T04:52:25.525Z,1632
2017-07-27T04:53:27.422Z,1616
2017-07-27T04:54:29.294Z,1572
2017-07-27T04:55:43.444Z,1612
2017-07-27T04:56:45.340Z,1632
2017-07-27T04:57:47.216Z,1804
2017-07-27T04:58:49.110Z,1808
2017-07-27T04:59:50.921Z,1876
2017-07-27T05:00:52.729Z,1912
2017-07-27T05:01:54.627Z,1868
2017-07-27T05:02:56.501Z,1816
2017-07-27T05:03:58.403Z,1780
2017-07-27T05:05:12.570Z,1768
2017-07-27T05:06:14.441Z,1776
2017-07-27T05:07:16.342Z,1808
2017-07-27T05:08:18.239Z,1824
2017-07-27T05:09:20.073Z,1864
2017-07-27T05:10:21.905Z,1936
2017-07-27T05:11:23.800Z,2028
2017-07-27T05:12:25.699Z,2148
2017-07-27T05:13:27.596Z,2280
2017-07-27T05:14:41.766Z,2460
2017-07-27T05:15:43.638Z,2632
2017-07-27T05:16:45.536Z,2804
2017-07-27T05:17:47.406Z,2988
2017-07-27T05:18:49.219Z,3144
2017-07-27T05:19:51.050Z,3204
2017-07-27T05:20:52.948Z,3116
2017-07-27T05:21:54.839Z,2936
2017-07-27T05:22:56.711Z,2760
2017-07-27T05:24:10.967Z,2736
2017-07-27T05:25:12.864Z,2680
2017-07-27T05:26:14.738Z,2600
2017-07-27T05:27:16.774Z,2516
2017-07-27T05:28:18.630Z,2504
2017-07-27T05:29:20.457Z,2572
2017-07-27T05:30:22.343Z,2680
2017-07-27T05:31:24.241Z,2844
2017-07-27T05:32:26.139Z,2960
2017-07-27T05:33:40.304Z,3032
2017-07-27T05:34:42.182Z,3168
2017-07-27T05:35:44.057Z,3296
2017-07-27T05:36:45.950Z,3408
2017-07-27T05:37:47.756Z,3456
2017-07-27T05:38:49.572Z,3392
2017-07-27T05:39:51.464Z,3324
2017-07-27T05:40:53.338Z,3152
2017-07-27T05:41:55.237Z,2940
2017-07-27T05:43:09.406Z,2772
2017-07-27T05:44:11.275Z,2692
2017-07-27T05:45:13.175Z,2644
2017-07-27T05:46:15.050Z,2612
2017-07-27T05:47:16.862Z,2540
2017-07-27T05:48:18.694Z,2476
2017-07-27T05:49:20.565Z,2472
2017-07-27T05:50:22.436Z,2536
2017-07-27T05:51:24.312Z,2660
2017-07-27T05:52:38.485Z,2772
2017-07-27T05:53:40.357Z,2852
2017-07-27T05:54:42.230Z,2992
2017-07-27T05:55:44.128Z,3152
2017-07-27T05:56:45.960Z,3252
2017-07-27T05:57:47.799Z,3336
2017-07-27T05:58:49.682Z,3516
2017-07-27T05:59:51.564Z,3728
2017-07-27T06:00:53.454Z,3972
2017-07-27T06:02:07.600Z,4368
2017-07-27T06:03:09.476Z,4704
2017-07-27T06:04:11.377Z,4944
2017-07-27T06:05:13.277Z,5012
2017-07-27T06:06:15.112Z,5016
2017-07-27T06:07:16.955Z,5036
2017-07-27T06:08:18.847Z,5156
2017-07-27T06:09:20.743Z,5252
2017-07-27T06:10:22.638Z,5220
2017-07-27T06:11:36.792Z,5052
2017-07-27T06:12:38.688Z,4852
2017-07-27T06:13:40.571Z,4720
2017-07-27T06:14:42.474Z,4756
2017-07-27T06:15:44.306Z,4828
2017-07-27T06:16:46.142Z,4848
2017-07-27T06:17:48.034Z,4916
2017-07-27T06:18:49.915Z,5028
2017-07-27T06:19:51.816Z,5088
2017-07-27T06:21:05.986Z,5148
2017-07-27T06:22:07.883Z,5192
2017-07-27T06:23:09.759Z,5140
2017-07-27T06:24:11.636Z,4972
2017-07-27T06:25:13.471Z,4816
2017-07-27T06:26:15.282Z,4708
2017-07-27T06:27:17.162Z,4576
2017-07-27T06:28:19.055Z,4436
2017-07-27T06:29:20.933Z,4336
2017-07-27T06:30:35.084Z,4268
2017-07-27T06:31:36.978Z,4184
2017-07-27T06:32:38.860Z,4064
2017-07-27T06:33:40.757Z,3920
2017-07-27T06:34:42.569Z,3852
2017-07-27T06:35:44.378Z,3768
2017-07-27T06:36:46.257Z,3704
2017-07-27T06:37:48.151Z,3684
2017-07-27T06:38:50.046Z,3688
2017-07-27T06:40:04.190Z,3740
2017-07-27T06:41:06.066Z,3764
2017-07-27T06:42:07.967Z,3740
2017-07-27T06:43:09.862Z,3716
2017-07-27T06:44:11.677Z,3680
2017-07-27T06:45:13.509Z,3680
2017-07-27T06:46:15.384Z,3720
2017-07-27T06:47:17.249Z,3808
2017-07-27T06:48:19.152Z,3956
2017-07-27T06:49:33.305Z,4168
2017-07-27T06:50:35.201Z,4344
2017-07-27T06:51:37.081Z,4552
2017-07-27T06:52:38.980Z,4736
2017-07-27T06:53:40.821Z,4940
2017-07-27T06:54:42.675Z,5164
2017-07-27T06:55:44.551Z,5372
2017-07-27T06:56:46.448Z,5544
2017-07-27T06:57:48.344Z,5740
2017-07-27T06:59:02.492Z,5960
2017-07-27T07:00:04.363Z,6140
2017-07-27T07:01:06.236Z,6376
2017-07-27T07:02:08.113Z,6704
2017-07-27T07:03:09.926Z,6948
2017-07-27T07:04:11.786Z,7128
2017-07-27T07:05:13.690Z,7484
2017-07-27T07:06:15.567Z,7972
2017-07-27T07:07:17.468Z,8440
2017-07-27T07:08:31.636Z,8860
2017-07-27T07:09:33.515Z,9004
2017-07-27T07:10:35.391Z,9088
2017-07-27T07:11:37.298Z,9304
2017-07-27T07:12:39.120Z,9604
2017-07-27T07:13:40.933Z,9980
2017-07-27T07:14:42.810Z,10500
2017-07-27T07:15:44.714Z,11140
2017-07-27T07:16:46.591Z,11616
2017-07-27T07:18:00.789Z,12076
2017-07-27T07:19:02.691Z,12596
2017-07-27T07:20:04.595Z,13424
2017-07-27T07:21:06.476Z,14308
2017-07-27T07:22:08.314Z,15132
2017-07-27T07:23:10.128Z,15652
2017-07-27T07:24:12.026Z,16012
2017-07-27T07:25:13.930Z,16480
2017-07-27T07:26:15.826Z,16544
2017-07-27T07:27:29.984Z,16352
2017-07-27T07:28:31.853Z,15676
2017-07-27T07:29:33.734Z,15084
2017-07-27T07:30:35.630Z,14572
2017-07-27T07:31:37.448Z,14148
2017-07-27T07:32:39.258Z,13728
2017-07-27T07:33:41.137Z,13444
2017-07-27T07:34:43.013Z,13208
2017-07-27T07:35:44.914Z,12936
2017-07-27T07:36:59.094Z,12668
2017-07-27T07:38:00.967Z,12448
2017-07-27T07:39:02.848Z,12288
2017-07-27T07:40:04.747Z,12200
2017-07-27T07:41:06.558Z,12132
2017-07-27T07:42:08.387Z,12092
2017-07-27T07:43:10.291Z,12176
2017-07-27T07:44:12.166Z,12116
2017-07-27T07:45:14.063Z,11692
2017-07-27T07:46:28.213Z,10924
2017-07-27T07:47:30.092Z,10456
2017-07-27T07:48:31.983Z,10864
2017-07-27T07:49:33.886Z,11436
2017-07-27T07:50:35.719Z,12016
2017-07-27T07:51:37.535Z,12460
2017-07-27T07:52:39.487Z,12936
2017-07-27T07:53:41.363Z,13132
2017-07-27T07:54:43.254Z,13200
2017-07-27T07:55:57.395Z,13304
2017-07-27T07:56:59.289Z,13388
2017-07-27T07:58:01.181Z,13548
2017-07-27T07:59:03.110Z,13796
2017-07-27T08:00:04.922Z,14068
2017-07-27T08:01:06.742Z,14232
2017-07-27T08:02:08.647Z,14144
2017-07-27T08:03:10.546Z,13836
2017-07-27T08:04:12.450Z,13492
2017-07-27T08:05:26.626Z,13124
2017-07-27T08:06:28.525Z,12960
2017-07-27T08:07:30.409Z,12712
2017-07-27T08:08:32.291Z,12480
2017-07-27T08:09:34.130Z,12452
2017-07-27T08:10:35.946Z,12536
2017-07-27T08:11:37.827Z,12704
2017-07-27T08:12:39.756Z,12968
2017-07-27T08:13:41.660Z,13300
2017-07-27T08:14:55.807Z,13360
2017-07-27T08:15:57.709Z,14044
2017-07-27T08:16:59.587Z,14444
2017-07-27T08:18:01.475Z,14628
2017-07-27T08:19:03.288Z,14504
2017-07-27T08:20:05.131Z,15120
2017-07-27T08:21:07.024Z,15804
2017-07-27T08:22:08.926Z,16016
2017-07-27T08:23:10.829Z,15916
2017-07-27T08:24:25.005Z,15388
2017-07-27T08:25:26.920Z,15548
2017-07-27T08:26:28.803Z,15620
2017-07-27T08:27:30.701Z,15600
2017-07-27T08:28:32.538Z,15012
2017-07-27T08:29:34.353Z,14416
2017-07-27T08:30:36.259Z,14272
2017-07-27T08:31:38.159Z,14264
2017-07-27T08:32:40.046Z,14056
2017-07-27T08:33:54.220Z,14040
2017-07-27T08:34:56.121Z,14540
2017-07-27T08:35:58.001Z,15060
2017-07-27T08:36:59.912Z,15384
2017-07-27T08:38:01.764Z,15892
2017-07-27T08:39:03.578Z,16416
2017-07-27T08:40:05.462Z,16576
2017-07-27T08:41:07.362Z,16352
2017-07-27T08:42:09.268Z,15948
2017-07-27T08:43:23.419Z,15476
2017-07-27T08:44:25.332Z,15280
2017-07-27T08:45:27.216Z,15216
2017-07-27T08:46:29.115Z,15064
2017-07-27T08:47:30.937Z,14800
2017-07-27T08:48:32.772Z,14696
2017-07-27T08:49:34.672Z,14852
2017-07-27T08:50:36.547Z,15176
2017-07-27T08:51:38.430Z,14600
2017-07-27T08:52:52.636Z,13044
2017-07-27T08:53:54.668Z,13148
2017-07-27T08:54:56.640Z,14168
2017-07-27T08:55:58.643Z,14192
2017-07-27T08:57:00.473Z,13888
2017-07-27T08:58:02.293Z,14384
2017-07-27T08:59:04.195Z,13768
2017-07-27T09:00:06.096Z,12732
2017-07-27T09:01:07.999Z,11776
2017-07-27T09:02:22.168Z,12016
2017-07-27T09:03:24.051Z,12972
2017-07-27T09:04:26.010Z,14116
2017-07-27T09:05:27.891Z,14756
2017-07-27T09:06:29.705Z,14924
2017-07-27T09:07:31.540Z,15060
2017-07-27T09:08:33.420Z,14952
2017-07-27T09:09:35.299Z,15024
2017-07-27T09:10:37.199Z,15468
2017-07-27T09:11:51.366Z,16044
2017-07-27T09:12:53.272Z,16512
2017-07-27T09:13:55.170Z,16768
2017-07-27T09:14:57.056Z,16960
2017-07-27T09:15:58.863Z,17120
2017-07-27T09:17:00.681Z,17152
2017-07-27T09:18:02.585Z,17088
2017-07-27T09:19:04.462Z,16896
2017-07-27T09:20:06.367Z,16768
2017-07-27T09:21:20.543Z,16864
2017-07-27T09:22:22.445Z,16864
2017-07-27T09:23:24.328Z,16800
2017-07-27T09:24:26.229Z,16704
2017-07-27T09:25:28.066Z,16384
2017-07-27T09:26:29.884Z,16112
2017-07-27T09:27:31.787Z,16120
2017-07-27T09:28:33.688Z,16384
2017-07-27T09:29:35.590Z,16208
2017-07-27T09:30:49.742Z,16120
2017-07-27T09:31:51.642Z,15944
2017-07-27T09:32:53.524Z,15848
2017-07-27T09:33:55.407Z,15888
2017-07-27T09:34:57.254Z,16092
2017-07-27T09:35:59.090Z,16272
2017-07-27T09:37:00.966Z,16232
2017-07-27T09:38:02.867Z,16156
2017-07-27T09:39:04.750Z,16076
2017-07-27T09:40:18.906Z,15980
2017-07-27T09:41:20.782Z,15872
2017-07-27T09:42:22.665Z,15732
2017-07-27T09:43:24.592Z,15440
2017-07-27T09:44:26.416Z,15044
2017-07-27T09:45:28.256Z,14884
2017-07-27T09:46:30.159Z,14664
2017-07-27T09:47:32.061Z,14164
2017-07-27T09:48:34.037Z,13452
2017-07-27T09:49:48.370Z,13608
2017-07-27T09:50:50.388Z,13968
2017-07-27T09:51:52.270Z,14288
2017-07-27T09:52:54.167Z,14188
2017-07-27T09:53:55.983Z,13580
2017-07-27T09:54:57.801Z,13844
2017-07-27T09:55:59.700Z,15384
2017-07-27T09:57:01.577Z,16800
2017-07-27T09:58:03.459Z,15456
2017-07-27T09:59:17.612Z,14312
2017-07-27T10:00:19.511Z,14616
2017-07-27T10:01:21.392Z,15880
2017-07-27T10:02:23.273Z,16256
2017-07-27T10:03:25.112Z,15604
2017-07-27T10:04:26.944Z,15072
2017-07-27T10:05:28.832Z,14404
2017-07-27T10:06:30.731Z,14096
2017-07-27T10:07:32.613Z,13852
2017-07-27T10:08:46.788Z,15080
2017-07-27T10:09:48.690Z,13928
2017-07-27T10:10:50.568Z,12532
2017-07-27T10:11:52.445Z,12132
2017-07-27T10:12:54.696Z,12444
2017-07-27T10:13:56.598Z,12604
2017-07-27T10:14:58.498Z,13240
2017-07-27T10:16:00.400Z,13292
2017-07-27T10:17:02.301Z,12420
2017-07-27T10:18:16.452Z,11472
2017-07-27T10:19:18.324Z,10824
2017-07-27T10:20:20.203Z,9668
2017-07-27T10:21:22.097Z,8948
2017-07-27T10:22:23.915Z,8732
2017-07-27T10:23:25.749Z,8956
2017-07-27T10:24:27.626Z,9588
2017-07-27T10:25:29.520Z,10312
2017-07-27T10:26:31.402Z,10572
2017-07-27T10:27:45.580Z,10588
2017-07-27T10:28:47.482Z,10940
2017-07-27T10:29:49.384Z,10012
2017-07-27T10:30:51.260Z,11040
2017-07-27T10:31:53.073Z,11732
2017-07-27T10:32:54.902Z,11504
2017-07-27T10:33:56.791Z,11084
2017-07-27T10:34:58.673Z,12536
2017-07-27T10:36:00.575Z,13136
2017-07-27T10:37:14.721Z,12544
2017-07-27T10:38:16.602Z,11756
2017-07-27T10:39:18.503Z,12536
2017-07-27T10:40:20.382Z,11608
2017-07-27T10:41:22.239Z,11068
2017-07-27T10:42:24.075Z,10600
2017-07-27T10:43:25.950Z,9340
2017-07-27T10:44:27.851Z,8740
2017-07-27T10:45:29.752Z,9044
2017-07-27T10:46:43.989Z,9592
2017-07-27T10:47:45.897Z,10516
2017-07-27T10:48:47.797Z,11780
2017-07-27T10:49:49.678Z,13332
2017-07-27T10:50:51.493Z,13560
2017-07-27T10:51:53.331Z,12200
2017-07-27T10:52:55.228Z,10712
2017-07-27T10:53:57.445Z,10064
2017-07-27T10:54:59.289Z,9668
2017-07-27T10:56:13.444Z,9888
2017-07-27T10:57:15.349Z,10144
2017-07-27T10:58:17.248Z,10704
2017-07-27T10:59:19.151Z,11640
2017-07-27T11:00:20.970Z,12608
2017-07-27T11:01:22.780Z,12556
2017-07-27T11:02:24.668Z,11956
2017-07-27T11:03:26.569Z,10812
2017-07-27T11:04:28.472Z,10008
2017-07-27T11:05:42.631Z,9216
2017-07-27T11:06:44.527Z,8772
2017-07-27T11:07:46.433Z,8644
2017-07-27T11:08:48.336Z,9492
2017-07-27T11:09:50.175Z,10128
2017-07-27T11:10:52.021Z,10388
2017-07-27T11:11:53.912Z,10800
2017-07-27T11:12:55.785Z,11508
2017-07-27T11:13:57.658Z,11720
2017-07-27T11:15:11.817Z,10848
2017-07-27T11:16:13.713Z,10184
2017-07-27T11:17:15.590Z,9960
2017-07-27T11:18:17.495Z,10156
2017-07-27T11:19:19.335Z,10424
2017-07-27T11:20:21.154Z,10748
2017-07-27T11:21:23.036Z,10676
2017-07-27T11:22:24.903Z,10148
2017-07-27T11:23:26.804Z,9964
2017-07-27T11:24:40.954Z,10364
2017-07-27T11:25:42.830Z,10284
2017-07-27T11:26:44.701Z,9852
2017-07-27T11:27:46.613Z,9640
2017-07-27T11:28:48.429Z,9964
2017-07-27T11:29:50.242Z,10248
2017-07-27T11:30:52.151Z,10420
2017-07-27T11:31:54.183Z,10536
2017-07-27T11:32:56.064Z,11516
2017-07-27T11:34:10.224Z,12800
2017-07-27T11:35:12.100Z,12712
2017-07-27T11:36:14.030Z,11816
2017-07-27T11:37:15.913Z,12460
2017-07-27T11:38:17.740Z,13896
2017-07-27T11:39:19.568Z,13892
2017-07-27T11:40:21.470Z,13376
2017-07-27T11:41:23.344Z,12508
2017-07-27T11:42:25.219Z,11952
2017-07-27T11:43:39.373Z,11912
2017-07-27T11:44:41.281Z,12088
2017-07-27T11:45:43.185Z,12348
2017-07-27T11:46:45.085Z,12496
2017-07-27T11:47:46.903Z,12720
2017-07-27T11:48:48.718Z,13220
2017-07-27T11:49:50.595Z,13716
2017-07-27T11:50:52.498Z,13476
2017-07-27T11:51:54.395Z,13780
2017-07-27T11:53:08.557Z,14788
2017-07-27T11:54:10.468Z,15344
2017-07-27T11:55:12.338Z,15484
2017-07-27T11:56:14.206Z,15764
2017-07-27T11:57:16.027Z,16016
2017-07-27T11:58:17.862Z,16332
2017-07-27T11:59:19.774Z,16736
2017-07-27T12:00:21.670Z,17056
2017-07-27T12:01:23.573Z,17344
2017-07-27T12:02:37.749Z,17728
2017-07-27T12:03:39.629Z,18080
2017-07-27T12:04:41.533Z,18336
2017-07-27T12:05:43.431Z,18528
2017-07-27T12:06:45.244Z,18528
2017-07-27T12:07:47.061Z,18432
2017-07-27T12:08:48.968Z,18080
2017-07-27T12:09:50.825Z,17504
2017-07-27T12:10:52.704Z,16992
2017-07-27T12:12:06.855Z,16352
2017-07-27T12:13:08.733Z,15788
2017-07-27T12:14:10.604Z,15224
2017-07-27T12:15:12.478Z,14348
2017-07-27T12:16:14.298Z,13192
2017-07-27T12:17:16.113Z,12096
2017-07-27T12:18:17.995Z,11884
2017-07-27T12:19:19.890Z,12024
2017-07-27T12:20:21.775Z,10856
2017-07-27T12:21:35.973Z,9984
2017-07-27T12:22:37.845Z,10820
2017-07-27T12:23:39.728Z,12136
2017-07-27T12:24:41.632Z,13292
2017-07-27T12:25:43.442Z,15080
2017-07-27T12:26:45.256Z,18656
2017-07-27T12:27:47.137Z,22592
2017-07-27T12:28:49.146Z,24704
2017-07-27T12:29:51.351Z,25184
2017-07-27T12:31:05.706Z,24256
2017-07-27T12:32:07.716Z,23584
2017-07-27T12:33:09.767Z,23488
2017-07-27T12:34:11.796Z,23456
2017-07-27T12:35:14.465Z,23040
2017-07-27T12:36:16.444Z,21920
2017-07-27T12:37:18.509Z,20736
2017-07-27T12:38:20.469Z,19712
2017-07-27T12:39:22.511Z,19616
2017-07-27T12:40:36.955Z,20352
2017-07-27T12:41:39.044Z,20800
2017-07-27T12:42:41.118Z,20928
2017-07-27T12:43:43.158Z,21088
2017-07-27T12:44:45.211Z,21088
2017-07-27T12:45:47.310Z,20768
2017-07-27T12:46:49.357Z,20448
2017-07-27T12:47:51.583Z,20352
2017-07-27T12:48:53.528Z,20288
2017-07-27T12:50:08.063Z,20352
2017-07-27T12:51:10.945Z,20640
2017-07-27T12:52:12.914Z,21056
2017-07-27T12:53:15.086Z,21344
2017-07-27T12:54:17.116Z,21504
2017-07-27T12:55:19.168Z,21536
2017-07-27T12:56:21.276Z,21536
2017-07-27T12:57:23.230Z,21472
2017-07-27T12:58:25.232Z,21344
2017-07-27T12:59:39.614Z,21216
2017-07-27T13:00:41.648Z,20960
2017-07-27T13:01:43.686Z,20608
2017-07-27T13:02:45.693Z,20160
2017-07-27T13:03:47.642Z,19648
2017-07-27T13:04:49.468Z,19040
2017-07-27T13:05:51.412Z,18272
2017-07-27T13:06:53.315Z,17408
2017-07-27T13:07:55.277Z,16448
2017-07-27T13:09:09.506Z,15400
2017-07-27T13:10:11.371Z,14716
2017-07-27T13:11:13.320Z,14200
2017-07-27T13:12:15.205Z,14028
2017-07-27T13:13:17.033Z,14056
2017-07-27T13:14:18.873Z,14008
2017-07-27T13:15:20.756Z,13700
2017-07-27T13:16:22.652Z,13288
2017-07-27T13:17:24.556Z,12880
2017-07-27T13:18:38.739Z,12348
2017-07-27T13:19:40.656Z,12076
2017-07-27T13:20:42.600Z,12120
2017-07-27T13:21:44.538Z,12496
2017-07-27T13:22:46.414Z,12804
2017-07-27T13:23:48.280Z,13020
2017-07-27T13:24:50.223Z,13176
2017-07-27T13:25:52.105Z,13144
2017-07-27T13:26:54.006Z,12968
2017-07-27T13:28:08.305Z,12748
2017-07-27T13:29:10.233Z,12660
2017-07-27T13:30:12.143Z,12524
2017-07-27T13:31:14.093Z,12132
2017-07-27T13:32:15.961Z,11356
2017-07-27T13:33:17.817Z,9880
2017-07-27T13:34:19.757Z,8328
2017-07-27T13:35:21.681Z,6952
2017-07-27T13:36:23.599Z,5992
2017-07-27T13:37:37.811Z,5152
2017-07-27T13:38:39.740Z,4704
2017-07-27T13:39:41.669Z,4372
2017-07-27T13:40:43.581Z,4096
2017-07-27T13:41:45.504Z,3816
2017-07-27T13:42:47.435Z,3588
2017-07-27T13:43:49.403Z,3456
2017-07-27T13:44:51.330Z,3464
2017-07-27T13:45:53.251Z,3516
2017-07-27T13:47:07.457Z,3572
2017-07-27T13:48:09.371Z,3568
2017-07-27T13:49:11.474Z,3624
2017-07-27T13:50:13.373Z,3844
2017-07-27T13:51:15.201Z,4300
2017-07-27T13:52:17.087Z,4932
2017-07-27T13:53:18.944Z,5620
2017-07-27T13:54:20.829Z,6436
2017-07-27T13:55:22.749Z,7376
2017-07-27T13:56:36.971Z,8304
2017-07-27T13:57:38.897Z,8796
2017-07-27T13:58:40.835Z,9124
2017-07-27T13:59:42.754Z,9392
2017-07-27T14:00:44.658Z,9576
2017-07-27T14:01:46.571Z,9760
2017-07-27T14:02:48.483Z,9984
2017-07-27T14:03:50.413Z,10252
2017-07-27T14:04:52.342Z,10396
2017-07-27T14:06:06.559Z,10548
2017-07-27T14:07:08.534Z,10788
2017-07-27T14:08:10.545Z,10996
2017-07-27T14:09:12.524Z,10772
2017-07-27T14:10:14.418Z,10100
2017-07-27T14:11:16.304Z,9312
2017-07-27T14:12:18.200Z,8620